Time;durP1;ratioP1;P1;durP2;ratioP2;P2;SDS_P1;SDS_P2;PMS_P1;PMS_P2;Temp;Humidity;BMP_temperature;BMP_pressure;BME280_temperature;BME280_humidity;BME280_pressure;Samples;Min_cycle;Max_cycle;Signal;HPM_P1;HPM_P2
2022/09/01 00:00:52;;;;;;;13.57;12.77;;;;;;;;;;5035642;28;20028;-62
2022/09/01 00:03:20;;;;;;;14.13;13.32;;;;;;;;;;5040041;28;20037;-62
2022/09/01 00:05:52;;;;;;;14.95;14.13;;;;;;;;;;5037474;28;20124;-62
2022/09/01 00:08:18;;;;;;;15.70;14.80;;;;;;;;;;5038543;28;20021;-62
2022/09/01 00:10:44;;;;;;;13.27;12.43;;;;;;;;;;5039876;28;20445;-62
2022/09/01 00:13:09;;;;;;;11.55;10.85;;;;;;;;;;5037913;28;20068;-62
2022/09/01 00:15:35;;;;;;;11.55;10.85;;;;;;;;;;5037883;28;20041;-61
2022/09/01 00:18:01;;;;;;;12.95;12.02;;;;;;;;;;5037669;28;20029;-62
2022/09/01 00:20:27;;;;;;;14.13;13.27;;;;;;;;;;5035306;28;20045;-62
2022/09/01 00:22:52;;;;;;;13.95;13.05;;;;;;;;;;5039524;28;20388;-62
2022/09/01 00:25:18;;;;;;;12.63;11.90;;;;;;;;;;5038222;28;20030;-62
2022/09/01 00:27:45;;;;;;;11.82;11.13;;;;;;;;;;5039773;28;20127;-62
2022/09/01 00:30:10;;;;;;;11.45;10.65;;;;;;;;;;5038558;28;20033;-62
2022/09/01 00:32:36;;;;;;;10.93;10.25;;;;;;;;;;5037041;28;20021;-62
2022/09/01 00:35:01;;;;;;;11.70;11.00;;;;;;;;;;5037866;28;20029;-62
2022/09/01 00:37:26;;;;;;;12.57;11.77;;;;;;;;;;5034913;28;20046;-62
2022/09/01 00:39:52;;;;;;;11.63;10.93;;;;;;;;;;5041815;28;20041;-62
2022/09/01 00:42:17;;;;;;;12.13;11.43;;;;;;;;;;5038548;28;20075;-62
2022/09/01 00:44:43;;;;;;;11.45;10.75;;;;;;;;;;5037206;28;20032;-62
2022/09/01 00:47:08;;;;;;;11.98;11.27;;;;;;;;;;5040144;28;20069;-62
2022/09/01 00:49:40;;;;;;;11.50;10.80;;;;;;;;;;5037144;28;20067;-62
2022/09/01 00:52:09;;;;;;;10.60;9.98;;;;;;;;;;5037101;28;20040;-62
2022/09/01 00:54:40;;;;;;;10.30;9.60;;;;;;;;;;5034711;28;20040;-63
2022/09/01 00:57:08;;;;;;;11.75;11.05;;;;;;;;;;5038346;28;20033;-62
2022/09/01 00:59:37;;;;;;;9.80;9.20;;;;;;;;;;5032309;28;20430;-62
2022/09/01 01:02:03;;;;;;;9.95;9.35;;;;;;;;;;5036124;28;20045;-62
2022/09/01 01:04:30;;;;;;;10.77;10.07;;;;;;;;;;5028951;28;20028;-62
2022/09/01 01:07:01;;;;;;;10.93;10.23;;;;;;;;;;5034998;28;20067;-62
2022/09/01 01:09:27;;;;;;;;;;;;;;;;;;5040258;28;20131;-62
2022/09/01 01:11:56;;;;;;;10.23;9.52;;;;;;;;;;5039609;28;19927;-62
2022/09/01 01:14:22;;;;;;;9.93;9.32;;;;;;;;;;5037017;28;20021;-62
2022/09/01 01:16:50;;;;;;;11.35;10.65;;;;;;;;;;5036051;28;20037;-62
2022/09/01 01:25:13;;;;;;;13.23;12.43;;;;;;;;;;5037801;28;20032;-62
2022/09/01 01:27:42;;;;;;;13.70;12.73;;;;;;;;;;5035290;28;20411;-61
2022/09/01 01:30:10;;;;;;;14.00;13.20;;;;;;;;;;5038077;28;20033;-62
2022/09/01 01:32:41;;;;;;;13.07;12.30;;;;;;;;;;5035902;28;20025;-62
2022/09/01 01:35:12;;;;;;;13.93;13.02;;;;;;;;;;5034813;28;20092;-62
2022/09/01 01:37:38;;;;;;;13.48;12.60;;;;;;;;;;5038674;28;20471;-61
2022/09/01 01:40:04;;;;;;;13.15;12.35;;;;;;;;;;5035040;28;20455;-62
2022/09/01 01:42:31;;;;;;;12.60;11.90;;;;;;;;;;5038610;28;20478;-61
2022/09/01 01:44:57;;;;;;;13.20;12.40;;;;;;;;;;5037928;28;20025;-62
2022/09/01 01:47:22;;;;;;;13.27;12.50;;;;;;;;;;5039620;28;20030;-62
2022/09/01 01:49:48;;;;;;;13.38;12.60;;;;;;;;;;5039069;28;20116;-62
2022/09/01 01:52:15;;;;;;;13.48;12.68;;;;;;;;;;5037854;28;20113;-62
2022/09/01 01:54:42;;;;;;;14.02;13.23;;;;;;;;;;5038314;28;20048;-62
2022/09/01 01:57:08;;;;;;;11.88;11.18;;;;;;;;;;5035302;28;20580;-62
2022/09/01 01:59:33;;;;;;;14.57;13.73;;;;;;;;;;5037788;28;20029;-62
2022/09/01 02:02:02;;;;;;;15.82;14.93;;;;;;;;;;5037309;28;20091;-62
2022/09/01 02:04:30;;;;;;;14.30;13.50;;;;;;;;;;5035725;28;20028;-62
2022/09/01 02:06:55;;;;;;;17.35;16.35;;;;;;;;;;5035371;28;20125;-61
2022/09/01 02:09:22;;;;;;;18.73;17.70;;;;;;;;;;5035896;28;20125;-62
2022/09/01 02:11:48;;;;;;;19.88;18.80;;;;;;;;;;5035953;28;20057;-62
2022/09/01 02:14:14;;;;;;;14.07;13.18;;;;;;;;;;5033660;28;20052;-62
2022/09/01 02:16:40;;;;;;;16.48;15.50;;;;;;;;;;5034053;28;20247;-62
2022/09/01 02:19:08;;;;;;;16.30;15.40;;;;;;;;;;5035496;28;20370;-62
2022/09/01 02:21:34;;;;;;;15.75;14.85;;;;;;;;;;5041611;28;20044;-62
2022/09/01 02:24:07;;;;;;;17.60;16.60;;;;;;;;;;5043112;28;20037;-62
2022/09/01 02:26:46;;;;;;;17.42;16.42;;;;;;;;;;5037972;28;20145;-62
2022/09/01 02:29:19;;;;;;;16.05;15.15;;;;;;;;;;5039913;28;20037;-62
2022/09/01 02:31:50;;;;;;;16.83;15.88;;;;;;;;;;5037638;28;20029;-62
2022/09/01 02:34:17;;;;;;;15.48;14.57;;;;;;;;;;5037340;28;20035;-62
2022/09/01 02:36:49;;;;;;;14.40;13.60;;;;;;;;;;5040732;28;20029;-63
2022/09/01 02:39:23;;;;;;;16.10;15.20;;;;;;;;;;5040139;28;20025;-62
2022/09/01 02:41:49;;;;;;;16.80;15.80;;;;;;;;;;5039399;28;20036;-62
2022/09/01 02:44:18;;;;;;;15.15;14.25;;;;;;;;;;5036432;28;20021;-62
2022/09/01 02:46:45;;;;;;;17.15;15.85;;;;;;;;;;5038995;28;20481;-62
2022/09/01 02:49:16;;;;;;;14.50;13.70;;;;;;;;;;5038656;28;20041;-62
2022/09/01 02:51:42;;;;;;;;;;;;;;;;;;5038894;28;20029;-62
2022/09/01 02:54:08;;;;;;;16.42;15.52;;;;;;;;;;5042431;28;20414;-62
2022/09/01 02:56:35;;;;;;;17.08;16.13;;;;;;;;;;5038373;28;20041;-62
2022/09/01 02:59:01;;;;;;;16.45;15.55;;;;;;;;;;5036877;28;20044;-62
2022/09/01 03:01:30;;;;;;;16.20;15.30;;;;;;;;;;5040025;28;20029;-62
2022/09/01 03:04:01;;;;;;;20.50;19.40;;;;;;;;;;5039264;28;20048;-62
2022/09/01 03:06:29;;;;;;;22.15;20.95;;;;;;;;;;5037317;28;20103;-62
2022/09/01 03:09:00;;;;;;;23.17;21.95;;;;;;;;;;5040510;28;20428;-62
2022/09/01 03:11:26;;;;;;;;;;;;;;;;;;5039046;28;20048;-61
2022/09/01 03:13:52;;;;;;;19.13;18.08;;;;;;;;;;5041278;28;19922;-61
2022/09/01 03:16:18;;;;;;;20.50;19.00;;;;;;;;;;5041011;28;20463;-60
2022/09/01 03:18:44;;;;;;;21.73;20.55;;;;;;;;;;5040839;28;20021;-62
2022/09/01 03:21:14;;;;;;;23.77;22.50;;;;;;;;;;5041422;28;20029;-63
2022/09/01 03:23:40;;;;;;;;;;;;;;;;;;5037655;28;20034;-61
2022/09/01 03:26:06;;;;;;;22.13;20.92;;;;;;;;;;5041776;28;19966;-62
2022/09/01 03:28:32;;;;;;;22.48;21.20;;;;;;;;;;5041025;28;20037;-61
2022/09/01 03:30:58;;;;;;;23.02;21.77;;;;;;;;;;5038643;28;20068;-62
2022/09/01 03:33:25;;;;;;;22.88;21.65;;;;;;;;;;5038455;28;20815;-62
2022/09/01 03:35:51;;;;;;;24.85;23.52;;;;;;;;;;5045575;28;20048;-62
2022/09/01 03:38:21;;;;;;;24.23;22.92;;;;;;;;;;5036371;28;20056;-62
2022/09/01 03:40:49;;;;;;;24.58;23.23;;;;;;;;;;5039897;28;20029;-61
2022/09/01 03:43:15;;;;;;;22.73;21.52;;;;;;;;;;5037720;28;20041;-62
2022/09/01 03:45:41;;;;;;;26.10;24.70;;;;;;;;;;5037510;28;20037;-62
2022/09/01 03:48:08;;;;;;;26.38;24.98;;;;;;;;;;5038278;28;20188;-61
2022/09/01 03:50:38;;;;;;;25.52;24.17;;;;;;;;;;5039879;28;20522;-62
2022/09/01 03:53:04;;;;;;;22.67;21.45;;;;;;;;;;5039922;28;20033;-61
2022/09/01 03:55:33;;;;;;;25.10;23.75;;;;;;;;;;5039938;28;20459;-62
2022/09/01 03:58:05;;;;;;;26.70;25.30;;;;;;;;;;5035669;28;20402;-62
2022/09/01 04:00:34;;;;;;;25.40;24.02;;;;;;;;;;5036478;28;20091;-62
2022/09/01 04:03:01;;;;;;;19.77;18.70;;;;;;;;;;5036036;28;20434;-62
2022/09/01 04:05:29;;;;;;;21.38;20.23;;;;;;;;;;5034719;28;20593;-61
2022/09/01 04:07:56;;;;;;;17.73;16.75;;;;;;;;;;5035380;28;20116;-61
2022/09/01 04:10:22;;;;;;;20.42;18.92;;;;;;;;;;5038080;28;20037;-62
2022/09/01 04:12:48;;;;;;;21.58;20.40;;;;;;;;;;5041385;28;20666;-63
2022/09/01 04:15:15;;;;;;;19.10;18.05;;;;;;;;;;5035761;28;20033;-61
2022/09/01 04:20:38;;;;;;;16.30;15.35;;;;;;;;;;5036810;28;20476;-62
2022/09/01 04:23:09;;;;;;;17.80;16.80;;;;;;;;;;5039613;28;20067;-61
2022/09/01 04:25:37;;;;;;;16.23;15.32;;;;;;;;;;5037400;28;20036;-61
2022/09/01 04:28:11;;;;;;;19.90;18.75;;;;;;;;;;5040701;28;20029;-61
2022/09/01 04:30:39;;;;;;;22.02;20.83;;;;;;;;;;5039434;28;20368;-61
2022/09/01 04:33:06;;;;;;;18.08;17.08;;;;;;;;;;5037811;28;20038;-61
2022/09/01 04:35:37;;;;;;;18.05;17.05;;;;;;;;;;5035385;28;20025;-61
2022/09/01 04:38:02;;;;;;;;;;;;;;;;;;5038057;28;20037;-61
2022/09/01 04:40:27;;;;;;;14.90;14.07;;;;;;;;;;5035795;28;20768;-61
2022/09/01 04:42:53;;;;;;;16.67;15.75;;;;;;;;;;5037330;28;20662;-61
2022/09/01 04:45:21;;;;;;;15.48;14.60;;;;;;;;;;5040312;28;20418;-61
2022/09/01 04:47:47;;;;;;;16.63;15.73;;;;;;;;;;5037241;28;20033;-61
2022/09/01 04:50:15;;;;;;;18.00;16.90;;;;;;;;;;5039760;28;20086;-61
2022/09/01 04:52:43;;;;;;;15.77;14.88;;;;;;;;;;5035668;28;20057;-61
2022/09/01 04:55:17;;;;;;;15.60;14.70;;;;;;;;;;5036895;28;20037;-61
2022/09/01 04:57:46;;;;;;;19.13;18.10;;;;;;;;;;5036613;28;20108;-61
2022/09/01 05:00:21;;;;;;;18.38;17.38;;;;;;;;;;5037147;28;20028;-61
2022/09/01 05:02:48;;;;;;;15.75;14.85;;;;;;;;;;5034367;28;20112;-61
2022/09/01 05:05:14;;;;;;;15.70;14.80;;;;;;;;;;5036279;28;20033;-61
2022/09/01 05:07:39;;;;;;;17.30;16.35;;;;;;;;;;5030505;28;20467;-60
2022/09/01 05:10:05;;;;;;;13.90;13.10;;;;;;;;;;5036223;28;20550;-60
2022/09/01 05:12:31;;;;;;;14.48;13.68;;;;;;;;;;5036445;28;20029;-61
2022/09/01 05:14:56;;;;;;;14.93;14.02;;;;;;;;;;5035518;28;20064;-61
2022/09/01 05:17:24;;;;;;;14.68;13.85;;;;;;;;;;5035321;28;20122;-60
2022/09/01 05:19:50;;;;;;;15.32;14.43;;;;;;;;;;5034732;28;20033;-60
2022/09/01 05:22:20;;;;;;;15.35;14.45;;;;;;;;;;5035306;28;20466;-61
2022/09/01 05:24:46;;;;;;;13.30;12.52;;;;;;;;;;5037636;28;20037;-61
2022/09/01 05:27:13;;;;;;;14.27;13.48;;;;;;;;;;5032637;28;20028;-61
2022/09/01 05:29:40;;;;;;;16.48;15.57;;;;;;;;;;5035782;28;20053;-62
2022/09/01 05:32:08;;;;;;;15.07;14.18;;;;;;;;;;5031842;28;20032;-60
2022/09/01 05:34:36;;;;;;;18.30;17.30;;;;;;;;;;5027533;28;20033;-61
2022/09/01 05:37:02;;;;;;;16.73;15.82;;;;;;;;;;5030679;28;20138;-61
2022/09/01 05:39:28;;;;;;;16.73;15.73;;;;;;;;;;5028015;28;20032;-61
2022/09/01 05:41:53;;;;;;;17.05;16.10;;;;;;;;;;5030358;28;20513;-61
2022/09/01 05:44:22;;;;;;;15.70;14.80;;;;;;;;;;5031993;28;20187;-61
2022/09/01 05:46:49;;;;;;;16.08;15.18;;;;;;;;;;5033168;28;20093;-62
2022/09/01 05:49:17;;;;;;;18.52;17.42;;;;;;;;;;5033285;28;20033;-62
2022/09/01 05:51:48;;;;;;;14.70;13.90;;;;;;;;;;5030588;28;20112;-61
2022/09/01 05:54:15;;;;;;;15.63;14.73;;;;;;;;;;5034708;28;20042;-61
2022/09/01 05:56:42;;;;;;;14.20;13.40;;;;;;;;;;5035580;28;20174;-61
2022/09/01 05:59:09;;;;;;;12.70;12.00;;;;;;;;;;5036379;28;20423;-61
2022/09/01 06:01:39;;;;;;;15.07;14.18;;;;;;;;;;5031542;28;20510;-62
2022/09/01 06:04:06;;;;;;;14.05;13.23;;;;;;;;;;5032971;28;20475;-62
2022/09/01 06:06:45;;;;;;;18.80;17.73;;;;;;;;;;5033129;28;20079;-62
2022/09/01 06:09:12;;;;;;;14.70;13.80;;;;;;;;;;5033892;28;20106;-62
2022/09/01 06:11:39;;;;;;;14.32;13.52;;;;;;;;;;5042744;28;20029;-62
2022/09/01 06:14:09;;;;;;;16.48;15.57;;;;;;;;;;5035547;28;20021;-61
2022/09/01 06:16:36;;;;;;;14.38;13.48;;;;;;;;;;5036517;28;20033;-61
2022/09/01 06:19:01;;;;;;;17.30;16.33;;;;;;;;;;5035990;28;20029;-62
2022/09/01 06:21:27;;;;;;;14.52;13.73;;;;;;;;;;5036876;28;20033;-62
2022/09/01 06:23:55;;;;;;;12.25;11.55;;;;;;;;;;5032495;28;20209;-62
2022/09/01 06:26:27;;;;;;;16.55;15.63;;;;;;;;;;5035744;28;20111;-61
2022/09/01 06:29:09;;;;;;;14.63;13.82;;;;;;;;;;5035859;28;20462;-61
2022/09/01 06:31:38;;;;;;;16.90;15.98;;;;;;;;;;5037765;28;20047;-62
2022/09/01 06:34:05;;;;;;;14.90;14.10;;;;;;;;;;5034092;28;20068;-61
2022/09/01 06:36:35;;;;;;;14.82;14.02;;;;;;;;;;5032189;28;20037;-61
2022/09/01 06:39:01;;;;;;;15.63;14.73;;;;;;;;;;5034028;28;20037;-61
2022/09/01 06:41:27;;;;;;;14.65;13.75;;;;;;;;;;5033428;28;20041;-61
2022/09/01 06:43:54;;;;;;;14.43;13.63;;;;;;;;;;5034965;28;20032;-61
2022/09/01 06:46:27;;;;;;;13.90;12.50;;;;;;;;;;5033325;28;20036;-61
2022/09/01 06:48:53;;;;;;;14.75;13.95;;;;;;;;;;5031509;28;20116;-61
2022/09/01 06:51:21;;;;;;;14.48;13.68;;;;;;;;;;5036280;28;20121;-61
2022/09/01 06:53:55;;;;;;;13.38;12.60;;;;;;;;;;5032160;28;20079;-62
2022/09/01 06:56:23;;;;;;;13.32;12.52;;;;;;;;;;5035010;28;20029;-61
2022/09/01 06:58:51;;;;;;;13.70;12.90;;;;;;;;;;5033797;28;20040;-62
2022/09/01 07:01:19;;;;;;;16.45;15.45;;;;;;;;;;5033260;28;20040;-62
2022/09/01 07:03:50;;;;;;;14.18;13.38;;;;;;;;;;5038436;28;20057;-61
2022/09/01 07:06:17;;;;;;;15.85;14.85;;;;;;;;;;5035772;28;20029;-58
2022/09/01 07:08:48;;;;;;;14.73;13.93;;;;;;;;;;5037981;28;20572;-58
2022/09/01 07:11:26;;;;;;;14.13;13.32;;;;;;;;;;5036373;28;20032;-58
2022/09/01 07:13:52;;;;;;;14.55;13.75;;;;;;;;;;5035178;28;20041;-58
2022/09/01 07:16:21;;;;;;;12.75;11.95;;;;;;;;;;5037490;28;20036;-58
2022/09/01 07:18:48;;;;;;;14.50;13.68;;;;;;;;;;5037764;28;20022;-58
2022/09/01 07:21:13;;;;;;;12.90;12.10;;;;;;;;;;5038822;28;20087;-59
2022/09/01 07:23:40;;;;;;;21.25;20.10;;;;;;;;;;5038004;28;20650;-58
2022/09/01 07:26:06;;;;;;;12.70;11.90;;;;;;;;;;5034586;28;20084;-58
2022/09/01 07:28:32;;;;;;;18.42;17.42;;;;;;;;;;5037776;28;20530;-58
2022/09/01 07:30:59;;;;;;;16.63;15.73;;;;;;;;;;5036163;28;20036;-58
2022/09/01 07:33:26;;;;;;;12.68;11.88;;;;;;;;;;5037243;28;20567;-58
2022/09/01 07:35:54;;;;;;;17.33;16.35;;;;;;;;;;5034211;28;20040;-58
2022/09/01 07:38:20;;;;;;;15.45;14.55;;;;;;;;;;5037075;28;20470;-58
2022/09/01 07:40:46;;;;;;;15.88;14.98;;;;;;;;;;5036115;28;20065;-58
2022/09/01 07:43:26;;;;;;;17.60;16.60;;;;;;;;;;5037796;28;20083;-58
2022/09/01 07:45:56;;;;;;;17.52;16.50;;;;;;;;;;5037988;28;20032;-58
2022/09/01 07:48:23;;;;;;;15.65;14.75;;;;;;;;;;5037996;28;20186;-58
2022/09/01 07:50:52;;;;;;;16.08;15.18;;;;;;;;;;5038185;28;20056;-58
2022/09/01 07:53:21;;;;;;;16.23;15.32;;;;;;;;;;5037165;28;20048;-58
2022/09/01 07:55:51;;;;;;;13.27;12.48;;;;;;;;;;5037826;28;20037;-58
2022/09/01 07:58:22;;;;;;;14.68;13.77;;;;;;;;;;5040013;28;20082;-58
2022/09/01 08:00:48;;;;;;;18.25;17.25;;;;;;;;;;5039498;28;20072;-58
2022/09/01 08:03:20;;;;;;;15.90;15.00;;;;;;;;;;5039505;28;20036;-58
2022/09/01 08:05:46;;;;;;;17.90;16.90;;;;;;;;;;5036089;28;20032;-57
2022/09/01 08:08:12;;;;;;;23.05;21.85;;;;;;;;;;5035539;28;20158;-57
2022/09/01 08:10:39;;;;;;;26.33;24.92;;;;;;;;;;5033277;28;20041;-59
2022/09/01 08:13:05;;;;;;;24.88;23.58;;;;;;;;;;5038229;28;20040;-57
2022/09/01 08:15:31;;;;;;;24.25;22.95;;;;;;;;;;5034142;28;20421;-57
2022/09/01 08:17:56;;;;;;;20.10;19.00;;;;;;;;;;5037303;28;20119;-57
2022/09/01 08:20:22;;;;;;;24.63;23.23;;;;;;;;;;5035126;28;20344;-57
2022/09/01 08:22:47;;;;;;;27.02;25.63;;;;;;;;;;5036082;28;20542;-58
2022/09/01 08:25:15;;;;;;;25.48;24.15;;;;;;;;;;5037464;28;20037;-57
2022/09/01 08:27:41;;;;;;;29.20;27.70;;;;;;;;;;5035579;28;20039;-57
2022/09/01 08:30:09;;;;;;;25.95;24.55;;;;;;;;;;5036297;28;20029;-58
2022/09/01 08:32:35;;;;;;;19.80;18.70;;;;;;;;;;5035342;28;20487;-58
2022/09/01 08:35:03;;;;;;;21.67;20.50;;;;;;;;;;5035817;28;20533;-58
2022/09/01 08:37:29;;;;;;;15.02;14.18;;;;;;;;;;5035928;28;20037;-58
2022/09/01 08:39:55;;;;;;;22.67;21.40;;;;;;;;;;5032333;28;20064;-58
2022/09/01 08:42:45;;;;;;;25.25;23.92;;;;;;;;;;5035768;28;20157;-58
2022/09/01 08:45:37;;;;;;;23.60;22.05;;;;;;;;;;5036872;28;20029;-58
2022/09/01 08:48:16;;;;;;;28.90;27.30;;;;;;;;;;5035357;28;20041;-58
2022/09/01 08:50:43;;;;;;;26.25;24.85;;;;;;;;;;5035734;28;20044;-58
2022/09/01 08:53:22;;;;;;;19.90;18.83;;;;;;;;;;5039201;28;20471;-58
2022/09/01 08:55:53;;;;;;;19.73;18.63;;;;;;;;;;5035993;28;20029;-58
2022/09/01 08:58:19;;;;;;;21.80;20.60;;;;;;;;;;5036228;28;20057;-58
2022/09/01 09:00:53;;;;;;;28.27;26.77;;;;;;;;;;5037521;28;20075;-58
2022/09/01 09:03:52;;;;;;;20.20;19.10;;;;;;;;;;5036087;28;20067;-57
2022/09/01 09:06:28;;;;;;;27.25;25.83;;;;;;;;;;5035970;28;20060;-57
2022/09/01 09:08:56;;;;;;;22.88;21.67;;;;;;;;;;5034500;28;20061;-57
2022/09/01 09:11:25;;;;;;;17.60;16.63;;;;;;;;;;5034990;28;20076;-57
2022/09/01 09:14:12;;;;;;;17.63;16.63;;;;;;;;;;5036759;28;20028;-58
2022/09/01 09:16:46;;;;;;;20.75;19.65;;;;;;;;;;5031115;28;20938;-57
2022/09/01 09:19:18;;;;;;;18.63;17.63;;;;;;;;;;5034934;28;20455;-59
2022/09/01 09:21:47;;;;;;;25.00;23.70;;;;;;;;;;5037654;28;20033;-59
2022/09/01 09:24:48;;;;;;;23.45;22.20;;;;;;;;;;5032824;28;20033;-59
2022/09/01 09:27:29;;;;;;;20.70;19.60;;;;;;;;;;5036156;28;20144;-59
2022/09/01 09:29:56;;;;;;;22.85;21.60;;;;;;;;;;5031943;28;20079;-57
2022/09/01 09:32:42;;;;;;;23.83;22.52;;;;;;;;;;5032342;28;20029;-59
2022/09/01 09:35:30;;;;;;;22.23;21.02;;;;;;;;;;5037484;28;20152;-59
2022/09/01 09:38:17;;;;;;;19.95;18.85;;;;;;;;;;5034382;28;20390;-59
2022/09/01 09:41:16;;;;;;;18.02;17.02;;;;;;;;;;5032401;28;20055;-59
2022/09/01 09:43:54;;;;;;;18.63;17.63;;;;;;;;;;5038592;28;20021;-61
2022/09/01 09:46:32;;;;;;;23.45;22.20;;;;;;;;;;5036435;28;20425;-59
2022/09/01 09:49:09;;;;;;;20.27;19.17;;;;;;;;;;5035619;28;20043;-60
2022/09/01 09:51:36;;;;;;;24.20;22.90;;;;;;;;;;5035422;28;20043;-59
2022/09/01 09:54:27;;;;;;;21.42;20.25;;;;;;;;;;5034329;28;20029;-60
2022/09/01 09:57:07;;;;;;;18.60;17.60;;;;;;;;;;5038260;28;20527;-60
2022/09/01 09:59:56;;;;;;;17.40;16.42;;;;;;;;;;5040878;28;20045;-60
2022/09/01 10:02:35;;;;;;;22.38;21.05;;;;;;;;;;5042031;28;20116;-60
2022/09/01 10:05:22;;;;;;;18.98;17.88;;;;;;;;;;5037446;28;20052;-61
2022/09/01 10:07:48;;;;;;;20.27;19.15;;;;;;;;;;5032893;28;20037;-61
2022/09/01 10:10:44;;;;;;;16.75;15.85;;;;;;;;;;5033474;28;20123;-60
2022/09/01 10:13:21;;;;;;;19.05;18.00;;;;;;;;;;5031922;28;20079;-60
2022/09/01 10:15:54;;;;;;;13.45;12.65;;;;;;;;;;5038956;28;20103;-58
2022/09/01 10:18:23;;;;;;;16.70;15.80;;;;;;;;;;5037890;28;20037;-61
2022/09/01 10:20:58;;;;;;;17.60;16.60;;;;;;;;;;5036210;28;20036;-59
2022/09/01 10:23:26;;;;;;;14.68;13.77;;;;;;;;;;5035356;28;20120;-58
2022/09/01 10:25:59;;;;;;;15.27;14.38;;;;;;;;;;5042355;28;20024;-58
2022/09/01 10:28:28;;;;;;;11.85;11.15;;;;;;;;;;5037077;28;20161;-58
2022/09/01 10:30:55;;;;;;;13.52;12.73;;;;;;;;;;5037457;28;20067;-58
2022/09/01 10:33:21;;;;;;;16.33;15.40;;;;;;;;;;5038358;28;20046;-58
2022/09/01 10:35:52;;;;;;;16.63;15.63;;;;;;;;;;5040460;28;20136;-57
2022/09/01 10:38:27;;;;;;;17.20;16.25;;;;;;;;;;5037188;28;20103;-58
2022/09/01 10:41:08;;;;;;;19.30;18.23;;;;;;;;;;5034472;28;20037;-58
2022/09/01 10:43:35;;;;;;;;;;;;;;;;;;5039282;28;20087;-58
2022/09/01 10:46:16;;;;;;;13.40;12.60;;;;;;;;;;5043074;28;19924;-58
2022/09/01 10:48:42;;;;;;;17.85;16.85;;;;;;;;;;5044571;28;20032;-59
2022/09/01 10:51:13;;;;;;;22.13;20.92;;;;;;;;;;5039715;28;20044;-59
2022/09/01 10:53:40;;;;;;;12.70;11.98;;;;;;;;;;5039647;28;20075;-58
2022/09/01 10:56:14;;;;;;;14.55;13.75;;;;;;;;;;5036223;28;20044;-58
2022/09/01 10:58:51;;;;;;;16.88;15.88;;;;;;;;;;5038950;28;20116;-58
2022/09/01 11:01:39;;;;;;;15.07;14.23;;;;;;;;;;5039526;28;20082;-58
2022/09/01 11:04:09;;;;;;;14.38;13.57;;;;;;;;;;5045430;28;20033;-58
2022/09/01 11:06:40;;;;;;;20.33;19.23;;;;;;;;;;5040586;28;20024;-58
2022/09/01 11:09:25;;;;;;;22.63;21.27;;;;;;;;;;5038814;28;20060;-58
2022/09/01 11:12:12;;;;;;;23.65;22.35;;;;;;;;;;5037803;28;20045;-58
2022/09/01 11:14:53;;;;;;;22.63;21.42;;;;;;;;;;5038556;28;20428;-58
2022/09/01 11:17:30;;;;;;;;;;;;;;;;;;5036072;28;20386;-59
2022/09/01 11:20:21;;;;;;;22.70;21.50;;;;;;;;;;5036698;28;19932;-59
2022/09/01 11:23:00;;;;;;;25.17;23.88;;;;;;;;;;5037624;28;20898;-58
2022/09/01 11:25:42;;;;;;;24.42;23.13;;;;;;;;;;5039395;28;20044;-59
2022/09/01 11:28:14;;;;;;;21.85;20.65;;;;;;;;;;5037529;28;20025;-58
2022/09/01 11:30:40;;;;;;;17.58;16.58;;;;;;;;;;5034676;28;20041;-58
2022/09/01 11:33:15;;;;;;;25.50;24.15;;;;;;;;;;5038010;28;20025;-58
2022/09/01 11:35:44;;;;;;;28.25;26.75;;;;;;;;;;5036103;28;20038;-58
2022/09/01 11:38:13;;;;;;;37.85;35.90;;;;;;;;;;5035094;28;20549;-58
2022/09/01 11:40:39;;;;;;;52.50;49.90;;;;;;;;;;5039301;28;20041;-59
2022/09/01 11:43:09;;;;;;;107.38;102.07;;;;;;;;;;5036718;28;20481;-58
2022/09/01 11:45:54;;;;;;;93.70;89.07;;;;;;;;;;5036192;28;20027;-58
2022/09/01 11:48:20;;;;;;;85.15;80.95;;;;;;;;;;5039708;28;20045;-59
2022/09/01 11:50:58;;;;;;;61.20;58.15;;;;;;;;;;5037710;28;20499;-59
2022/09/01 11:53:24;;;;;;;96.40;91.65;;;;;;;;;;5034789;28;20033;-58
2022/09/01 11:55:53;;;;;;;87.35;83.03;;;;;;;;;;5036404;28;20084;-59
2022/09/01 11:58:27;;;;;;;117.18;111.43;;;;;;;;;;5035401;28;20039;-58
2022/09/01 12:00:55;;;;;;;135.43;128.77;;;;;;;;;;5033289;28;20029;-58
2022/09/01 12:03:28;;;;;;;139.23;132.35;;;;;;;;;;5039108;28;20029;-58
2022/09/01 12:06:06;;;;;;;168.00;159.77;;;;;;;;;;5039331;28;20035;-58
2022/09/01 12:08:34;;;;;;;152.68;145.15;;;;;;;;;;5034961;28;20047;-59
2022/09/01 12:11:17;;;;;;;88.82;84.40;;;;;;;;;;5036162;28;20562;-59
2022/09/01 12:14:04;;;;;;;183.43;174.48;;;;;;;;;;5034697;28;20119;-59
2022/09/01 12:16:33;;;;;;;242.60;230.77;;;;;;;;;;5034065;28;20046;-59
2022/09/01 12:18:59;;;;;;;175.80;167.18;;;;;;;;;;5036003;28;20062;-59
2022/09/01 12:21:24;;;;;;;216.93;206.32;;;;;;;;;;5040470;28;20375;-59
2022/09/01 12:23:51;;;;;;;262.35;249.50;;;;;;;;;;5034994;28;20037;-59
2022/09/01 12:26:26;;;;;;;310.00;294.73;;;;;;;;;;5035990;28;20033;-59
2022/09/01 12:28:52;;;;;;;318.23;302.45;;;;;;;;;;5034864;28;20041;-59
2022/09/01 12:31:22;;;;;;;308.65;293.48;;;;;;;;;;5034793;28;20044;-59
2022/09/01 12:33:48;;;;;;;;;;;;;;;;;;5036220;28;20029;-59
2022/09/01 12:36:33;;;;;;;322.42;306.42;;;;;;;;;;5038147;28;19924;-59
2022/09/01 12:39:18;;;;;;;318.95;303.27;;;;;;;;;;5033881;28;20371;-59
2022/09/01 12:41:59;;;;;;;313.88;298.38;;;;;;;;;;5034951;28;20060;-60
2022/09/01 12:44:33;;;;;;;331.73;315.20;;;;;;;;;;5037108;28;20037;-58
2022/09/01 12:47:03;;;;;;;364.48;346.00;;;;;;;;;;5033584;28;20017;-58
2022/09/01 12:49:39;;;;;;;376.58;357.48;;;;;;;;;;5035201;28;20052;-59
2022/09/01 12:52:24;;;;;;;372.75;353.90;;;;;;;;;;5034110;28;20639;-58
2022/09/01 12:55:02;;;;;;;361.10;342.77;;;;;;;;;;5035176;28;20370;-58
2022/09/01 12:57:33;;;;;;;376.88;357.63;;;;;;;;;;5033600;28;20037;-57
2022/09/01 13:00:10;;;;;;;;;;;;;;;;;;5035179;28;20033;-58
2022/09/01 13:02:42;;;;;;;290.80;276.50;;;;;;;;;;5032352;28;19920;-59
2022/09/01 13:05:22;;;;;;;312.00;296.58;;;;;;;;;;5031128;28;20077;-60
2022/09/01 13:07:48;;;;;;;;;;;;;;;;;;5035393;28;20099;-60
2022/09/01 13:10:14;;;;;;;309.40;294.15;;;;;;;;;;5034837;28;19924;-58
2022/09/01 13:12:41;;;;;;;267.45;254.38;;;;;;;;;;5034590;28;20098;-58
2022/09/01 13:15:07;;;;;;;230.00;218.80;;;;;;;;;;5038882;28;20040;-58
2022/09/01 13:17:33;;;;;;;294.17;279.75;;;;;;;;;;5036030;28;20106;-58
2022/09/01 13:19:58;;;;;;;262.73;249.80;;;;;;;;;;5037725;28;20033;-61
2022/09/01 13:22:24;;;;;;;315.02;299.48;;;;;;;;;;5035740;28;20387;-58
2022/09/01 13:24:49;;;;;;;290.83;276.40;;;;;;;;;;5035781;28;20526;-58
2022/09/01 13:27:15;;;;;;;357.40;339.48;;;;;;;;;;5043584;28;20363;-59
2022/09/01 13:29:40;;;;;;;325.02;308.83;;;;;;;;;;5034474;28;20051;-65
2022/09/01 13:32:07;;;;;;;367.10;348.60;;;;;;;;;;5035426;28;20040;-60
2022/09/01 13:34:34;;;;;;;359.52;341.40;;;;;;;;;;5036209;28;20592;-60
2022/09/01 13:36:59;;;;;;;401.50;380.92;;;;;;;;;;5031183;28;20413;-59
2022/09/01 13:39:25;;;;;;;387.77;367.92;;;;;;;;;;5035016;28;20029;-58
2022/09/01 13:41:51;;;;;;;400.60;379.92;;;;;;;;;;5034319;28;20098;-59
2022/09/01 13:44:17;;;;;;;395.63;375.35;;;;;;;;;;5035641;28;20372;-59
2022/09/01 13:46:43;;;;;;;387.65;367.85;;;;;;;;;;5032967;28;20029;-59
2022/09/01 13:49:08;;;;;;;390.67;370.70;;;;;;;;;;5034784;28;20596;-59
2022/09/01 13:51:35;;;;;;;402.25;381.58;;;;;;;;;;5042710;28;20564;-59
2022/09/01 13:54:01;;;;;;;394.88;374.63;;;;;;;;;;5036113;28;20064;-58
2022/09/01 13:56:27;;;;;;;374.88;355.83;;;;;;;;;;5034584;28;20084;-58
2022/09/01 13:58:52;;;;;;;393.65;373.52;;;;;;;;;;5034670;28;20044;-59
2022/09/01 14:01:17;;;;;;;385.02;365.50;;;;;;;;;;5039060;28;20620;-58
2022/09/01 14:03:43;;;;;;;387.77;368.00;;;;;;;;;;5034655;28;20079;-59
2022/09/01 14:06:08;;;;;;;374.75;355.63;;;;;;;;;;5036625;28;20027;-59
2022/09/01 14:08:34;;;;;;;370.38;351.60;;;;;;;;;;5036538;28;20043;-58
2022/09/01 14:10:59;;;;;;;372.30;353.58;;;;;;;;;;5031308;28;20036;-58
2022/09/01 14:13:25;;;;;;;394.70;374.60;;;;;;;;;;5034295;28;20116;-58
2022/09/01 14:15:52;;;;;;;379.35;360.15;;;;;;;;;;5035690;28;20029;-58
2022/09/01 14:18:18;;;;;;;401.30;380.80;;;;;;;;;;5036154;28;20029;-59
2022/09/01 14:20:47;;;;;;;376.30;357.33;;;;;;;;;;5041140;28;20036;-59
2022/09/01 14:23:13;;;;;;;396.88;376.55;;;;;;;;;;5040676;28;20021;-59
2022/09/01 14:25:45;;;;;;;375.33;356.40;;;;;;;;;;5038171;28;20040;-58
2022/09/01 14:28:11;;;;;;;411.33;390.30;;;;;;;;;;5036498;28;20041;-58
2022/09/01 14:30:41;;;;;;;383.95;364.52;;;;;;;;;;5037701;28;20534;-59
2022/09/01 14:33:07;;;;;;;369.58;350.98;;;;;;;;;;5037510;28;20103;-59
2022/09/01 14:35:32;;;;;;;378.95;359.80;;;;;;;;;;5038191;28;20036;-59
2022/09/01 14:37:59;;;;;;;402.48;381.80;;;;;;;;;;5042599;28;20038;-59
2022/09/01 14:40:27;;;;;;;409.38;388.55;;;;;;;;;;5040609;28;20029;-59